sensor_id;sensor_type;location;lat;lon;timestamp;temperature;humidity
47174;DHT22;36730;49.036;9.094;2023-07-30T00:00:15;26.80;86.90
47174;DHT22;36730;49.036;9.094;2023-07-30T00:02:40;26.80;87.00
47174;DHT22;36730;49.036;9.094;2023-07-30T00:05:06;26.80;87.20
47174;DHT22;36730;49.036;9.094;2023-07-30T00:07:31;26.80;87.30
47174;DHT22;36730;49.036;9.094;2023-07-30T00:09:57;26.80;87.40
47174;DHT22;36730;49.036;9.094;2023-07-30T00:12:22;26.80;87.50
47174;DHT22;36730;49.036;9.094;2023-07-30T00:14:48;26.80;87.50
47174;DHT22;36730;49.036;9.094;2023-07-30T00:17:13;26.80;87.60
47174;DHT22;36730;49.036;9.094;2023-07-30T00:19:39;26.80;87.70
47174;DHT22;36730;49.036;9.094;2023-07-30T00:22:04;26.80;87.60
47174;DHT22;36730;49.036;9.094;2023-07-30T00:24:30;26.80;87.80
47174;DHT22;36730;49.036;9.094;2023-07-30T00:26:55;26.80;87.70
47174;DHT22;36730;49.036;9.094;2023-07-30T00:29:21;26.80;87.80
47174;DHT22;36730;49.036;9.094;2023-07-30T00:31:46;26.80;87.80
47174;DHT22;36730;49.036;9.094;2023-07-30T00:34:12;26.80;87.90
47174;DHT22;36730;49.036;9.094;2023-07-30T00:36:37;26.80;87.90
47174;DHT22;36730;49.036;9.094;2023-07-30T00:39:03;26.70;88.00
47174;DHT22;36730;49.036;9.094;2023-07-30T00:41:28;26.70;88.00
47174;DHT22;36730;49.036;9.094;2023-07-30T00:43:54;26.70;88.00
47174;DHT22;36730;49.036;9.094;2023-07-30T00:46:19;26.70;88.00
47174;DHT22;36730;49.036;9.094;2023-07-30T00:48:45;26.70;88.00
47174;DHT22;36730;49.036;9.094;2023-07-30T00:51:11;26.70;88.00
47174;DHT22;36730;49.036;9.094;2023-07-30T00:53:38;26.70;88.00
47174;DHT22;36730;49.036;9.094;2023-07-30T00:56:03;26.60;88.10
47174;DHT22;36730;49.036;9.094;2023-07-30T00:58:29;26.70;88.10
47174;DHT22;36730;49.036;9.094;2023-07-30T01:00:55;26.70;87.80
47174;DHT22;36730;49.036;9.094;2023-07-30T01:03:21;26.70;87.70
47174;DHT22;36730;49.036;9.094;2023-07-30T01:05:47;26.70;87.60
47174;DHT22;36730;49.036;9.094;2023-07-30T01:08:12;26.70;87.70
47174;DHT22;36730;49.036;9.094;2023-07-30T01:10:38;26.60;87.60
47174;DHT22;36730;49.036;9.094;2023-07-30T01:13:04;26.60;87.70
47174;DHT22;36730;49.036;9.094;2023-07-30T01:15:31;26.60;87.70
47174;DHT22;36730;49.036;9.094;2023-07-30T01:17:56;26.60;87.70
47174;DHT22;36730;49.036;9.094;2023-07-30T01:20:22;26.60;87.60
47174;DHT22;36730;49.036;9.094;2023-07-30T01:22:48;26.60;87.30
47174;DHT22;36730;49.036;9.094;2023-07-30T01:25:16;26.60;87.50
47174;DHT22;36730;49.036;9.094;2023-07-30T01:27:47;26.60;87.40
47174;DHT22;36730;49.036;9.094;2023-07-30T01:30:18;26.50;87.40
47174;DHT22;36730;49.036;9.094;2023-07-30T01:32:43;26.50;87.30
47174;DHT22;36730;49.036;9.094;2023-07-30T01:35:10;26.50;87.30
47174;DHT22;36730;49.036;9.094;2023-07-30T01:37:38;26.50;87.20
47174;DHT22;36730;49.036;9.094;2023-07-30T01:40:04;26.50;87.10
47174;DHT22;36730;49.036;9.094;2023-07-30T01:42:30;26.50;86.90
47174;DHT22;36730;49.036;9.094;2023-07-30T01:44:56;26.50;87.10
47174;DHT22;36730;49.036;9.094;2023-07-30T01:47:21;26.50;87.50
47174;DHT22;36730;49.036;9.094;2023-07-30T01:49:47;26.50;87.10
47174;DHT22;36730;49.036;9.094;2023-07-30T01:52:12;26.50;87.20
47174;DHT22;36730;49.036;9.094;2023-07-30T01:54:38;26.50;87.20
47174;DHT22;36730;49.036;9.094;2023-07-30T01:57:03;26.50;87.10
47174;DHT22;36730;49.036;9.094;2023-07-30T01:59:29;26.40;87.10
47174;DHT22;36730;49.036;9.094;2023-07-30T02:01:54;26.50;87.00
47174;DHT22;36730;49.036;9.094;2023-07-30T02:04:20;26.50;86.90
47174;DHT22;36730;49.036;9.094;2023-07-30T02:06:45;26.50;87.00
47174;DHT22;36730;49.036;9.094;2023-07-30T02:09:11;26.40;87.00
47174;DHT22;36730;49.036;9.094;2023-07-30T02:11:36;26.50;87.10
47174;DHT22;36730;49.036;9.094;2023-07-30T02:14:02;26.40;87.10
47174;DHT22;36730;49.036;9.094;2023-07-30T02:16:27;26.40;87.20
47174;DHT22;36730;49.036;9.094;2023-07-30T02:18:52;26.40;87.10
47174;DHT22;36730;49.036;9.094;2023-07-30T02:21:18;26.40;87.10
47174;DHT22;36730;49.036;9.094;2023-07-30T02:23:43;26.40;87.30
47174;DHT22;36730;49.036;9.094;2023-07-30T02:26:09;26.40;87.80
47174;DHT22;36730;49.036;9.094;2023-07-30T02:28:34;26.40;87.40
47174;DHT22;36730;49.036;9.094;2023-07-30T02:31:00;26.40;87.50
47174;DHT22;36730;49.036;9.094;2023-07-30T02:33:25;26.30;87.50
47174;DHT22;36730;49.036;9.094;2023-07-30T02:35:51;26.40;87.50
47174;DHT22;36730;49.036;9.094;2023-07-30T02:38:16;26.40;87.60
47174;DHT22;36730;49.036;9.094;2023-07-30T02:40:42;26.40;87.70
47174;DHT22;36730;49.036;9.094;2023-07-30T02:43:07;26.40;87.80
47174;DHT22;36730;49.036;9.094;2023-07-30T02:45:32;26.40;88.00
47174;DHT22;36730;49.036;9.094;2023-07-30T02:47:58;26.30;88.00
47174;DHT22;36730;49.036;9.094;2023-07-30T02:50:23;26.30;88.30
47174;DHT22;36730;49.036;9.094;2023-07-30T02:52:49;26.40;88.00
47174;DHT22;36730;49.036;9.094;2023-07-30T02:55:14;26.40;88.00
47174;DHT22;36730;49.036;9.094;2023-07-30T02:57:41;26.40;88.10
47174;DHT22;36730;49.036;9.094;2023-07-30T03:00:07;26.30;88.10
47174;DHT22;36730;49.036;9.094;2023-07-30T03:02:33;26.30;88.30
47174;DHT22;36730;49.036;9.094;2023-07-30T03:04:59;26.30;88.40
47174;DHT22;36730;49.036;9.094;2023-07-30T03:07:24;26.30;88.60
47174;DHT22;36730;49.036;9.094;2023-07-30T03:09:50;26.30;88.70
47174;DHT22;36730;49.036;9.094;2023-07-30T03:12:15;26.30;88.70
47174;DHT22;36730;49.036;9.094;2023-07-30T03:14:41;26.30;88.50
47174;DHT22;36730;49.036;9.094;2023-07-30T03:17:06;26.30;88.60
47174;DHT22;36730;49.036;9.094;2023-07-30T03:19:32;26.30;88.80
47174;DHT22;36730;49.036;9.094;2023-07-30T03:21:57;26.30;88.90
47174;DHT22;36730;49.036;9.094;2023-07-30T03:24:23;26.30;89.00
47174;DHT22;36730;49.036;9.094;2023-07-30T03:26:48;26.30;88.90
47174;DHT22;36730;49.036;9.094;2023-07-30T03:29:14;26.30;89.20
47174;DHT22;36730;49.036;9.094;2023-07-30T03:31:40;26.30;88.90
47174;DHT22;36730;49.036;9.094;2023-07-30T03:34:05;26.30;88.90
47174;DHT22;36730;49.036;9.094;2023-07-30T03:36:30;26.30;89.00
47174;DHT22;36730;49.036;9.094;2023-07-30T03:38:56;26.30;89.00
47174;DHT22;36730;49.036;9.094;2023-07-30T03:41:22;26.30;89.20
47174;DHT22;36730;49.036;9.094;2023-07-30T03:43:47;26.30;89.10
47174;DHT22;36730;49.036;9.094;2023-07-30T03:46:13;26.30;89.20
47174;DHT22;36730;49.036;9.094;2023-07-30T03:48:38;26.30;89.40
47174;DHT22;36730;49.036;9.094;2023-07-30T03:51:04;26.30;89.20
47174;DHT22;36730;49.036;9.094;2023-07-30T03:53:29;26.30;89.40
47174;DHT22;36730;49.036;9.094;2023-07-30T03:55:55;26.30;89.40
47174;DHT22;36730;49.036;9.094;2023-07-30T03:58:20;26.30;89.30
47174;DHT22;36730;49.036;9.094;2023-07-30T04:00:46;26.30;89.40
47174;DHT22;36730;49.036;9.094;2023-07-30T04:03:11;26.30;89.50
47174;DHT22;36730;49.036;9.094;2023-07-30T04:05:36;26.20;89.70
47174;DHT22;36730;49.036;9.094;2023-07-30T04:08:02;26.20;89.80
47174;DHT22;36730;49.036;9.094;2023-07-30T04:10:27;26.20;89.60
47174;DHT22;36730;49.036;9.094;2023-07-30T04:12:53;26.20;89.60
47174;DHT22;36730;49.036;9.094;2023-07-30T04:15:18;26.30;89.80
47174;DHT22;36730;49.036;9.094;2023-07-30T04:17:44;26.20;89.60
47174;DHT22;36730;49.036;9.094;2023-07-30T04:20:09;26.20;89.80
47174;DHT22;36730;49.036;9.094;2023-07-30T04:22:36;26.20;90.00
47174;DHT22;36730;49.036;9.094;2023-07-30T04:25:02;26.20;90.10
47174;DHT22;36730;49.036;9.094;2023-07-30T04:27:27;26.20;90.10
47174;DHT22;36730;49.036;9.094;2023-07-30T04:29:53;26.20;90.00
47174;DHT22;36730;49.036;9.094;2023-07-30T04:32:18;26.20;90.10
47174;DHT22;36730;49.036;9.094;2023-07-30T04:34:44;26.20;90.00
47174;DHT22;36730;49.036;9.094;2023-07-30T04:37:09;26.20;90.00
47174;DHT22;36730;49.036;9.094;2023-07-30T04:39:35;26.20;90.10
47174;DHT22;36730;49.036;9.094;2023-07-30T04:42:01;26.20;90.10
47174;DHT22;36730;49.036;9.094;2023-07-30T04:44:27;26.20;90.20
47174;DHT22;36730;49.036;9.094;2023-07-30T04:46:52;26.20;90.10
47174;DHT22;36730;49.036;9.094;2023-07-30T04:49:17;26.20;90.10
47174;DHT22;36730;49.036;9.094;2023-07-30T04:51:43;26.20;90.20
47174;DHT22;36730;49.036;9.094;2023-07-30T04:54:08;26.20;90.10
47174;DHT22;36730;49.036;9.094;2023-07-30T04:56:34;26.20;90.10
47174;DHT22;36730;49.036;9.094;2023-07-30T04:59:00;26.20;90.30
47174;DHT22;36730;49.036;9.094;2023-07-30T05:01:26;26.20;90.20
47174;DHT22;36730;49.036;9.094;2023-07-30T05:03:51;26.20;90.30
47174;DHT22;36730;49.036;9.094;2023-07-30T05:06:17;26.10;90.30
47174;DHT22;36730;49.036;9.094;2023-07-30T05:08:42;26.20;90.40
47174;DHT22;36730;49.036;9.094;2023-07-30T05:11:08;26.10;90.30
47174;DHT22;36730;49.036;9.094;2023-07-30T05:13:33;26.10;90.30
47174;DHT22;36730;49.036;9.094;2023-07-30T05:15:58;26.10;90.40
47174;DHT22;36730;49.036;9.094;2023-07-30T05:18:24;26.20;90.40
47174;DHT22;36730;49.036;9.094;2023-07-30T05:20:49;26.20;90.40
47174;DHT22;36730;49.036;9.094;2023-07-30T05:23:15;26.20;90.40
47174;DHT22;36730;49.036;9.094;2023-07-30T05:25:40;26.10;90.30
47174;DHT22;36730;49.036;9.094;2023-07-30T05:28:06;26.10;90.40
47174;DHT22;36730;49.036;9.094;2023-07-30T05:30:31;26.10;90.40
47174;DHT22;36730;49.036;9.094;2023-07-30T05:32:57;26.10;90.40
47174;DHT22;36730;49.036;9.094;2023-07-30T05:35:22;26.20;90.50
47174;DHT22;36730;49.036;9.094;2023-07-30T05:37:48;26.20;90.50
47174;DHT22;36730;49.036;9.094;2023-07-30T05:40:13;26.10;90.50
47174;DHT22;36730;49.036;9.094;2023-07-30T05:42:39;26.10;90.40
47174;DHT22;36730;49.036;9.094;2023-07-30T05:45:04;26.10;90.40
47174;DHT22;36730;49.036;9.094;2023-07-30T05:47:30;26.10;90.40
47174;DHT22;36730;49.036;9.094;2023-07-30T05:49:55;26.10;90.40
47174;DHT22;36730;49.036;9.094;2023-07-30T05:52:21;26.20;90.40
47174;DHT22;36730;49.036;9.094;2023-07-30T05:54:46;26.10;90.40
47174;DHT22;36730;49.036;9.094;2023-07-30T05:57:12;26.10;90.40
47174;DHT22;36730;49.036;9.094;2023-07-30T05:59:37;26.10;90.40
47174;DHT22;36730;49.036;9.094;2023-07-30T06:02:03;26.10;90.40
47174;DHT22;36730;49.036;9.094;2023-07-30T06:04:29;26.10;90.40
47174;DHT22;36730;49.036;9.094;2023-07-30T06:06:54;26.10;90.40
47174;DHT22;36730;49.036;9.094;2023-07-30T06:09:20;26.20;90.40
47174;DHT22;36730;49.036;9.094;2023-07-30T06:11:45;26.10;90.40
47174;DHT22;36730;49.036;9.094;2023-07-30T06:14:11;26.10;90.30
47174;DHT22;36730;49.036;9.094;2023-07-30T06:16:36;26.20;90.40
47174;DHT22;36730;49.036;9.094;2023-07-30T06:19:02;26.10;90.40
47174;DHT22;36730;49.036;9.094;2023-07-30T06:21:27;26.20;90.40
47174;DHT22;36730;49.036;9.094;2023-07-30T06:23:53;26.10;90.40
47174;DHT22;36730;49.036;9.094;2023-07-30T06:26:18;26.10;90.40
47174;DHT22;36730;49.036;9.094;2023-07-30T06:28:44;26.10;90.40
47174;DHT22;36730;49.036;9.094;2023-07-30T06:31:09;26.10;90.40
47174;DHT22;36730;49.036;9.094;2023-07-30T06:33:35;26.20;90.50
47174;DHT22;36730;49.036;9.094;2023-07-30T06:36:00;26.20;90.40
47174;DHT22;36730;49.036;9.094;2023-07-30T06:38:26;26.20;90.40
47174;DHT22;36730;49.036;9.094;2023-07-30T06:40:51;26.20;90.40
47174;DHT22;36730;49.036;9.094;2023-07-30T06:43:17;26.20;90.40
47174;DHT22;36730;49.036;9.094;2023-07-30T06:45:42;26.20;90.40
47174;DHT22;36730;49.036;9.094;2023-07-30T06:48:08;26.20;90.30
47174;DHT22;36730;49.036;9.094;2023-07-30T06:50:33;26.20;90.40
47174;DHT22;36730;49.036;9.094;2023-07-30T06:52:59;26.20;90.50
47174;DHT22;36730;49.036;9.094;2023-07-30T06:55:24;26.20;90.50
47174;DHT22;36730;49.036;9.094;2023-07-30T06:57:50;26.30;90.40
47174;DHT22;36730;49.036;9.094;2023-07-30T07:00:15;26.30;90.40
47174;DHT22;36730;49.036;9.094;2023-07-30T07:02:49;26.30;90.50
47174;DHT22;36730;49.036;9.094;2023-07-30T07:05:15;26.30;90.60
47174;DHT22;36730;49.036;9.094;2023-07-30T07:07:40;26.30;90.80
47174;DHT22;36730;49.036;9.094;2023-07-30T07:10:06;26.30;90.70
47174;DHT22;36730;49.036;9.094;2023-07-30T07:12:31;26.30;90.70
47174;DHT22;36730;49.036;9.094;2023-07-30T07:14:57;26.30;90.80
47174;DHT22;36730;49.036;9.094;2023-07-30T07:17:24;26.30;90.80
47174;DHT22;36730;49.036;9.094;2023-07-30T07:19:49;26.30;90.80
47174;DHT22;36730;49.036;9.094;2023-07-30T07:22:15;26.30;90.90
47174;DHT22;36730;49.036;9.094;2023-07-30T07:24:43;26.30;90.90
47174;DHT22;36730;49.036;9.094;2023-07-30T07:27:09;26.30;91.00
47174;DHT22;36730;49.036;9.094;2023-07-30T07:29:34;26.30;90.90
47174;DHT22;36730;49.036;9.094;2023-07-30T07:32:00;26.30;90.90
47174;DHT22;36730;49.036;9.094;2023-07-30T07:34:25;26.30;90.90
47174;DHT22;36730;49.036;9.094;2023-07-30T07:36:51;26.30;90.90
47174;DHT22;36730;49.036;9.094;2023-07-30T07:39:16;26.30;90.90
47174;DHT22;36730;49.036;9.094;2023-07-30T07:41:42;26.30;91.00
47174;DHT22;36730;49.036;9.094;2023-07-30T07:44:07;26.30;91.10
47174;DHT22;36730;49.036;9.094;2023-07-30T07:46:33;26.30;91.00
47174;DHT22;36730;49.036;9.094;2023-07-30T07:48:58;26.30;91.10
47174;DHT22;36730;49.036;9.094;2023-07-30T07:51:23;26.30;91.10
47174;DHT22;36730;49.036;9.094;2023-07-30T07:53:49;26.30;90.90
47174;DHT22;36730;49.036;9.094;2023-07-30T07:56:14;26.30;90.90
47174;DHT22;36730;49.036;9.094;2023-07-30T07:58:40;26.30;90.90
47174;DHT22;36730;49.036;9.094;2023-07-30T08:01:08;26.30;90.90
47174;DHT22;36730;49.036;9.094;2023-07-30T08:03:33;26.30;90.90
47174;DHT22;36730;49.036;9.094;2023-07-30T08:05:59;26.30;90.90
47174;DHT22;36730;49.036;9.094;2023-07-30T08:08:25;26.30;90.90
47174;DHT22;36730;49.036;9.094;2023-07-30T08:10:50;26.30;90.80
47174;DHT22;36730;49.036;9.094;2023-07-30T08:13:16;26.30;90.90
47174;DHT22;36730;49.036;9.094;2023-07-30T08:15:41;26.30;90.80
47174;DHT22;36730;49.036;9.094;2023-07-30T08:18:07;26.30;90.90
47174;DHT22;36730;49.036;9.094;2023-07-30T08:20:32;26.30;90.80
47174;DHT22;36730;49.036;9.094;2023-07-30T08:22:58;26.30;90.90
47174;DHT22;36730;49.036;9.094;2023-07-30T08:25:23;26.30;90.90
47174;DHT22;36730;49.036;9.094;2023-07-30T08:27:49;26.30;90.80
47174;DHT22;36730;49.036;9.094;2023-07-30T08:30:14;26.30;90.80
47174;DHT22;36730;49.036;9.094;2023-07-30T08:32:40;26.30;90.80
47174;DHT22;36730;49.036;9.094;2023-07-30T08:35:07;26.30;90.70
47174;DHT22;36730;49.036;9.094;2023-07-30T08:37:32;26.30;90.70
47174;DHT22;36730;49.036;9.094;2023-07-30T08:39:58;26.30;90.80
47174;DHT22;36730;49.036;9.094;2023-07-30T08:42:23;26.30;90.70
47174;DHT22;36730;49.036;9.094;2023-07-30T08:44:49;26.40;90.70
47174;DHT22;36730;49.036;9.094;2023-07-30T08:47:14;26.40;90.70
47174;DHT22;36730;49.036;9.094;2023-07-30T08:49:42;26.40;90.80
47174;DHT22;36730;49.036;9.094;2023-07-30T08:52:08;26.50;90.70
47174;DHT22;36730;49.036;9.094;2023-07-30T08:54:34;26.50;90.50
47174;DHT22;36730;49.036;9.094;2023-07-30T08:56:59;26.50;90.40
47174;DHT22;36730;49.036;9.094;2023-07-30T08:59:26;26.50;90.30
47174;DHT22;36730;49.036;9.094;2023-07-30T09:01:52;26.60;90.40
47174;DHT22;36730;49.036;9.094;2023-07-30T09:04:19;26.60;90.20
47174;DHT22;36730;49.036;9.094;2023-07-30T09:06:47;26.60;90.30
47174;DHT22;36730;49.036;9.094;2023-07-30T09:09:13;26.60;90.20
47174;DHT22;36730;49.036;9.094;2023-07-30T09:11:39;26.60;90.40
47174;DHT22;36730;49.036;9.094;2023-07-30T09:14:05;26.60;90.50
47174;DHT22;36730;49.036;9.094;2023-07-30T09:16:31;26.60;90.60
47174;DHT22;36730;49.036;9.094;2023-07-30T09:18:56;26.60;90.50
47174;DHT22;36730;49.036;9.094;2023-07-30T09:21:31;26.60;90.50
47174;DHT22;36730;49.036;9.094;2023-07-30T09:23:57;26.60;90.40
47174;DHT22;36730;49.036;9.094;2023-07-30T09:26:23;26.70;90.20
47174;DHT22;36730;49.036;9.094;2023-07-30T09:28:48;26.70;90.20
47174;DHT22;36730;49.036;9.094;2023-07-30T09:31:14;26.70;90.00
47174;DHT22;36730;49.036;9.094;2023-07-30T09:33:40;26.70;90.10
47174;DHT22;36730;49.036;9.094;2023-07-30T09:36:06;26.80;90.00
47174;DHT22;36730;49.036;9.094;2023-07-30T09:38:32;26.80;89.80
47174;DHT22;36730;49.036;9.094;2023-07-30T09:41:03;26.80;89.60
47174;DHT22;36730;49.036;9.094;2023-07-30T09:43:32;26.80;89.40
47174;DHT22;36730;49.036;9.094;2023-07-30T09:46:00;26.80;89.10
47174;DHT22;36730;49.036;9.094;2023-07-30T09:48:26;26.90;88.70
47174;DHT22;36730;49.036;9.094;2023-07-30T09:50:52;26.90;88.30
47174;DHT22;36730;49.036;9.094;2023-07-30T09:53:18;26.90;88.60
47174;DHT22;36730;49.036;9.094;2023-07-30T09:55:43;27.00;88.80
47174;DHT22;36730;49.036;9.094;2023-07-30T09:58:09;27.00;88.30
47174;DHT22;36730;49.036;9.094;2023-07-30T10:00:37;27.00;88.00
47174;DHT22;36730;49.036;9.094;2023-07-30T10:03:02;27.00;87.70
47174;DHT22;36730;49.036;9.094;2023-07-30T10:05:32;27.00;87.80
47174;DHT22;36730;49.036;9.094;2023-07-30T10:08:00;27.00;87.70
47174;DHT22;36730;49.036;9.094;2023-07-30T10:10:28;27.00;87.60
47174;DHT22;36730;49.036;9.094;2023-07-30T10:12:54;27.00;87.30
47174;DHT22;36730;49.036;9.094;2023-07-30T10:15:20;27.00;87.10
47174;DHT22;36730;49.036;9.094;2023-07-30T10:17:51;27.00;86.80
47174;DHT22;36730;49.036;9.094;2023-07-30T10:20:18;27.10;86.60
47174;DHT22;36730;49.036;9.094;2023-07-30T10:22:45;27.10;85.60
47174;DHT22;36730;49.036;9.094;2023-07-30T10:25:11;27.10;85.00
47174;DHT22;36730;49.036;9.094;2023-07-30T10:27:38;27.10;85.30
47174;DHT22;36730;49.036;9.094;2023-07-30T10:30:13;27.20;85.20
47174;DHT22;36730;49.036;9.094;2023-07-30T10:35:36;27.20;84.90
47174;DHT22;36730;49.036;9.094;2023-07-30T10:38:12;27.20;84.40
47174;DHT22;36730;49.036;9.094;2023-07-30T10:40:39;27.30;83.80
47174;DHT22;36730;49.036;9.094;2023-07-30T10:43:13;27.30;83.40
47174;DHT22;36730;49.036;9.094;2023-07-30T10:45:47;27.40;82.90
47174;DHT22;36730;49.036;9.094;2023-07-30T10:48:13;27.40;82.70
47174;DHT22;36730;49.036;9.094;2023-07-30T10:50:38;27.50;82.70
47174;DHT22;36730;49.036;9.094;2023-07-30T10:53:04;27.50;82.40
47174;DHT22;36730;49.036;9.094;2023-07-30T10:55:32;27.50;82.00
47174;DHT22;36730;49.036;9.094;2023-07-30T10:57:59;27.50;81.80
47174;DHT22;36730;49.036;9.094;2023-07-30T11:00:25;27.50;81.60
47174;DHT22;36730;49.036;9.094;2023-07-30T11:02:54;27.60;81.40
47174;DHT22;36730;49.036;9.094;2023-07-30T11:05:19;27.60;81.00
47174;DHT22;36730;49.036;9.094;2023-07-30T11:07:51;27.60;80.80
47174;DHT22;36730;49.036;9.094;2023-07-30T11:10:17;27.60;80.70
47174;DHT22;36730;49.036;9.094;2023-07-30T11:12:43;27.60;80.30
47174;DHT22;36730;49.036;9.094;2023-07-30T11:15:08;27.60;80.30
47174;DHT22;36730;49.036;9.094;2023-07-30T11:17:34;27.60;80.20
47174;DHT22;36730;49.036;9.094;2023-07-30T11:20:00;27.50;79.50
47174;DHT22;36730;49.036;9.094;2023-07-30T11:22:29;27.60;79.70
47174;DHT22;36730;49.036;9.094;2023-07-30T11:24:56;27.60;79.40
47174;DHT22;36730;49.036;9.094;2023-07-30T11:27:21;27.60;79.60
47174;DHT22;36730;49.036;9.094;2023-07-30T11:29:56;27.60;79.70
47174;DHT22;36730;49.036;9.094;2023-07-30T11:32:22;27.60;79.00
47174;DHT22;36730;49.036;9.094;2023-07-30T11:34:51;27.60;78.90
47174;DHT22;36730;49.036;9.094;2023-07-30T11:37:18;27.60;78.30
47174;DHT22;36730;49.036;9.094;2023-07-30T11:39:43;27.70;77.70
47174;DHT22;36730;49.036;9.094;2023-07-30T11:42:08;27.70;77.40
47174;DHT22;36730;49.036;9.094;2023-07-30T11:44:35;27.70;76.80
47174;DHT22;36730;49.036;9.094;2023-07-30T11:47:03;27.80;77.20
47174;DHT22;36730;49.036;9.094;2023-07-30T11:49:29;27.80;77.20
47174;DHT22;36730;49.036;9.094;2023-07-30T11:52:07;27.80;76.80
47174;DHT22;36730;49.036;9.094;2023-07-30T11:54:33;27.80;76.30
47174;DHT22;36730;49.036;9.094;2023-07-30T11:56:59;27.80;76.10
47174;DHT22;36730;49.036;9.094;2023-07-30T11:59:25;27.80;75.90
47174;DHT22;36730;49.036;9.094;2023-07-30T12:01:50;27.80;76.00
47174;DHT22;36730;49.036;9.094;2023-07-30T12:04:16;27.80;75.70
47174;DHT22;36730;49.036;9.094;2023-07-30T12:06:51;27.80;75.60
47174;DHT22;36730;49.036;9.094;2023-07-30T12:09:20;27.90;75.20
47174;DHT22;36730;49.036;9.094;2023-07-30T12:11:57;27.90;75.40
47174;DHT22;36730;49.036;9.094;2023-07-30T12:14:42;27.90;74.80
47174;DHT22;36730;49.036;9.094;2023-07-30T12:17:08;27.90;74.70
47174;DHT22;36730;49.036;9.094;2023-07-30T12:19:34;27.90;74.10
47174;DHT22;36730;49.036;9.094;2023-07-30T12:22:01;27.90;73.80
47174;DHT22;36730;49.036;9.094;2023-07-30T12:24:27;28.00;73.90
47174;DHT22;36730;49.036;9.094;2023-07-30T12:26:52;28.00;73.70
47174;DHT22;36730;49.036;9.094;2023-07-30T12:29:18;28.00;73.40
47174;DHT22;36730;49.036;9.094;2023-07-30T12:31:43;28.00;72.80
47174;DHT22;36730;49.036;9.094;2023-07-30T12:34:11;28.00;72.30
47174;DHT22;36730;49.036;9.094;2023-07-30T12:36:36;28.10;71.10
47174;DHT22;36730;49.036;9.094;2023-07-30T12:39:02;28.10;71.30
47174;DHT22;36730;49.036;9.094;2023-07-30T12:41:27;28.10;72.10
47174;DHT22;36730;49.036;9.094;2023-07-30T12:43:53;28.10;71.60
47174;DHT22;36730;49.036;9.094;2023-07-30T12:46:19;28.10;71.60
47174;DHT22;36730;49.036;9.094;2023-07-30T12:48:45;28.20;71.40
47174;DHT22;36730;49.036;9.094;2023-07-30T12:51:10;28.20;70.50
47174;DHT22;36730;49.036;9.094;2023-07-30T12:53:35;28.20;69.90
47174;DHT22;36730;49.036;9.094;2023-07-30T12:56:01;28.30;70.10
47174;DHT22;36730;49.036;9.094;2023-07-30T12:58:27;28.30;69.60
47174;DHT22;36730;49.036;9.094;2023-07-30T13:00:52;28.30;69.90
47174;DHT22;36730;49.036;9.094;2023-07-30T13:03:18;28.30;69.80
47174;DHT22;36730;49.036;9.094;2023-07-30T13:05:43;28.30;69.80
47174;DHT22;36730;49.036;9.094;2023-07-30T13:08:09;28.40;69.60
47174;DHT22;36730;49.036;9.094;2023-07-30T13:10:34;28.40;69.40
47174;DHT22;36730;49.036;9.094;2023-07-30T13:13:00;28.40;68.90
47174;DHT22;36730;49.036;9.094;2023-07-30T13:15:26;28.40;68.60
47174;DHT22;36730;49.036;9.094;2023-07-30T13:17:53;28.40;68.40
47174;DHT22;36730;49.036;9.094;2023-07-30T13:20:18;28.40;68.50
47174;DHT22;36730;49.036;9.094;2023-07-30T13:22:43;28.50;68.60
47174;DHT22;36730;49.036;9.094;2023-07-30T13:25:09;28.50;68.40
47174;DHT22;36730;49.036;9.094;2023-07-30T13:27:34;28.50;68.00
47174;DHT22;36730;49.036;9.094;2023-07-30T13:30:00;28.50;67.90
47174;DHT22;36730;49.036;9.094;2023-07-30T13:32:25;28.50;67.40
47174;DHT22;36730;49.036;9.094;2023-07-30T13:34:51;28.50;67.20
47174;DHT22;36730;49.036;9.094;2023-07-30T13:37:16;28.50;67.50
47174;DHT22;36730;49.036;9.094;2023-07-30T13:39:42;28.50;67.40
47174;DHT22;36730;49.036;9.094;2023-07-30T13:42:07;28.50;67.40
47174;DHT22;36730;49.036;9.094;2023-07-30T13:44:33;28.50;67.10
47174;DHT22;36730;49.036;9.094;2023-07-30T13:46:58;28.50;66.90
47174;DHT22;36730;49.036;9.094;2023-07-30T13:49:24;28.60;66.70
47174;DHT22;36730;49.036;9.094;2023-07-30T13:51:49;28.60;66.50
47174;DHT22;36730;49.036;9.094;2023-07-30T13:54:15;28.60;66.20
47174;DHT22;36730;49.036;9.094;2023-07-30T13:56:40;28.60;66.20
47174;DHT22;36730;49.036;9.094;2023-07-30T13:59:06;28.60;66.30
47174;DHT22;36730;49.036;9.094;2023-07-30T14:01:31;28.60;66.30
47174;DHT22;36730;49.036;9.094;2023-07-30T14:03:57;28.60;66.20
47174;DHT22;36730;49.036;9.094;2023-07-30T14:06:23;28.60;66.40
47174;DHT22;36730;49.036;9.094;2023-07-30T14:08:48;28.60;65.70
47174;DHT22;36730;49.036;9.094;2023-07-30T14:11:14;28.60;64.90
47174;DHT22;36730;49.036;9.094;2023-07-30T14:13:39;28.70;64.90
47174;DHT22;36730;49.036;9.094;2023-07-30T14:16:05;28.60;65.10
47174;DHT22;36730;49.036;9.094;2023-07-30T14:18:30;28.70;65.40
47174;DHT22;36730;49.036;9.094;2023-07-30T14:20:56;28.70;65.10
47174;DHT22;36730;49.036;9.094;2023-07-30T14:23:21;28.70;64.90
47174;DHT22;36730;49.036;9.094;2023-07-30T14:25:47;28.70;64.70
47174;DHT22;36730;49.036;9.094;2023-07-30T14:28:12;28.70;63.90
47174;DHT22;36730;49.036;9.094;2023-07-30T14:30:40;28.70;64.50
47174;DHT22;36730;49.036;9.094;2023-07-30T14:33:09;28.80;64.00
47174;DHT22;36730;49.036;9.094;2023-07-30T14:35:35;28.80;64.40
47174;DHT22;36730;49.036;9.094;2023-07-30T14:38:03;28.80;64.20
47174;DHT22;36730;49.036;9.094;2023-07-30T14:40:29;28.80;64.00
47174;DHT22;36730;49.036;9.094;2023-07-30T14:42:54;28.80;64.10
47174;DHT22;36730;49.036;9.094;2023-07-30T14:45:19;28.80;63.40
47174;DHT22;36730;49.036;9.094;2023-07-30T14:47:45;28.80;63.40
47174;DHT22;36730;49.036;9.094;2023-07-30T14:50:10;28.90;63.80
47174;DHT22;36730;49.036;9.094;2023-07-30T14:52:36;28.90;63.70
47174;DHT22;36730;49.036;9.094;2023-07-30T14:55:01;28.90;63.40
47174;DHT22;36730;49.036;9.094;2023-07-30T14:57:27;28.80;63.20
47174;DHT22;36730;49.036;9.094;2023-07-30T14:59:52;28.80;62.90
47174;DHT22;36730;49.036;9.094;2023-07-30T15:02:18;28.90;63.20
47174;DHT22;36730;49.036;9.094;2023-07-30T15:04:44;28.90;62.50
47174;DHT22;36730;49.036;9.094;2023-07-30T15:07:09;28.90;63.00
47174;DHT22;36730;49.036;9.094;2023-07-30T15:09:35;28.90;62.80
47174;DHT22;36730;49.036;9.094;2023-07-30T15:12:01;28.80;62.60
47174;DHT22;36730;49.036;9.094;2023-07-30T15:14:27;28.80;62.60
47174;DHT22;36730;49.036;9.094;2023-07-30T15:16:53;28.80;62.30
47174;DHT22;36730;49.036;9.094;2023-07-30T15:19:19;28.80;62.30
47174;DHT22;36730;49.036;9.094;2023-07-30T15:21:44;28.80;61.50
47174;DHT22;36730;49.036;9.094;2023-07-30T15:24:10;28.80;61.50